Time;durP1;ratioP1;P1;durP2;ratioP2;P2;SDS_P1;SDS_P2;PMS_P1;PMS_P2;Temp;Humidity;BMP_temperature;BMP_pressure;BME280_temperature;BME280_humidity;BME280_pressure;Samples;Min_cycle;Max_cycle;Signal;HPM_P1;HPM_P2
2022/10/01 00:01:14;;;;;;;9.90;7.67;;;;;;;;;;5100087;28;20633;-65
2022/10/01 00:03:42;;;;;;;7.67;6.90;;;;;;;;;;5093253;28;20630;-65
2022/10/01 00:06:12;;;;;;;7.57;6.43;;;;;;;;;;5092428;28;20479;-64
2022/10/01 00:08:40;;;;;;;7.90;7.10;;;;;;;;;;5092526;28;20228;-65
2022/10/01 00:11:13;;;;;;;7.60;6.77;;;;;;;;;;5092929;28;20214;-65
2022/10/01 00:13:41;;;;;;;7.53;6.73;;;;;;;;;;5092940;28;20200;-65
2022/10/01 00:16:10;;;;;;;8.00;6.67;;;;;;;;;;5086353;28;20229;-64
2022/10/01 00:18:39;;;;;;;7.80;6.50;;;;;;;;;;5072320;28;20633;-66
2022/10/01 00:21:07;;;;;;;6.73;6.10;;;;;;;;;;5072688;28;20591;-65
2022/10/01 00:23:34;;;;;;;7.87;6.43;;;;;;;;;;5095110;27;20728;-65
2022/10/01 00:26:13;;;;;;;7.30;6.23;;;;;;;;;;5112903;27;20246;-64
2022/10/01 00:28:41;;;;;;;7.17;6.03;;;;;;;;;;5108647;27;20497;-64
2022/10/01 00:31:09;;;;;;;6.93;6.23;;;;;;;;;;5131231;27;20199;-65
2022/10/01 00:33:37;;;;;;;7.10;6.40;;;;;;;;;;5123779;27;20207;-65
2022/10/01 00:36:06;;;;;;;7.53;6.67;;;;;;;;;;5096432;28;20285;-64
2022/10/01 00:38:33;;;;;;;8.90;6.83;;;;;;;;;;5096215;28;20239;-65
2022/10/01 00:41:00;;;;;;;7.77;6.70;;;;;;;;;;5114270;28;20277;-64
2022/10/01 00:43:32;;;;;;;7.17;6.40;;;;;;;;;;5096192;28;20295;-65
2022/10/01 00:46:18;;;;;;;6.40;5.80;;;;;;;;;;5095663;28;20603;-64
2022/10/01 00:49:05;;;;;;;6.77;6.07;;;;;;;;;;5095907;28;20303;-65
2022/10/01 00:51:34;;;;;;;8.20;5.97;;;;;;;;;;5095379;28;20662;-65
2022/10/01 00:54:09;;;;;;;8.83;6.20;;;;;;;;;;5095733;28;20504;-64
2022/10/01 00:56:37;;;;;;;7.50;6.70;;;;;;;;;;5106024;28;20249;-65
2022/10/01 00:59:05;;;;;;;7.53;6.20;;;;;;;;;;5107427;28;20204;-65
2022/10/01 01:01:34;;;;;;;6.87;6.27;;;;;;;;;;5104653;28;20299;-65
2022/10/01 01:04:02;;;;;;;6.77;6.10;;;;;;;;;;5112586;28;20200;-65
2022/10/01 01:06:30;;;;;;;6.60;6.00;;;;;;;;;;5110801;28;20651;-65
2022/10/01 01:08:58;;;;;;;6.60;5.90;;;;;;;;;;5095424;28;20717;-65
2022/10/01 01:11:31;;;;;;;7.03;5.90;;;;;;;;;;5094957;28;20200;-65
2022/10/01 01:14:17;;;;;;;7.30;6.53;;;;;;;;;;5095944;28;20365;-65
2022/10/01 01:16:50;;;;;;;7.53;6.23;;;;;;;;;;5095647;28;20318;-64
2022/10/01 01:19:37;;;;;;;7.13;6.43;;;;;;;;;;5095553;28;20299;-64
2022/10/01 01:22:06;;;;;;;7.00;6.30;;;;;;;;;;5113332;28;20732;-64
2022/10/01 01:24:49;;;;;;;7.43;6.60;;;;;;;;;;5096400;28;20192;-65
2022/10/01 01:27:24;;;;;;;7.33;6.63;;;;;;;;;;5094281;28;20273;-65
2022/10/01 01:29:51;;;;;;;8.60;6.63;;;;;;;;;;5098569;27;20231;-63
2022/10/01 01:32:39;;;;;;;6.67;5.97;;;;;;;;;;5109498;28;20236;-65
2022/10/01 01:35:08;;;;;;;6.77;6.07;;;;;;;;;;5117994;27;20302;-65
2022/10/01 01:37:38;;;;;;;7.13;6.43;;;;;;;;;;5115292;27;20740;-65
2022/10/01 01:40:09;;;;;;;6.70;6.00;;;;;;;;;;5115284;27;20203;-65
2022/10/01 01:42:38;;;;;;;8.47;6.40;;;;;;;;;;5095768;28;20224;-65
2022/10/01 01:45:08;;;;;;;9.47;7.00;;;;;;;;;;5107652;28;20224;-65
2022/10/01 01:47:37;;;;;;;7.37;6.20;;;;;;;;;;5108700;28;20669;-65
2022/10/01 01:50:07;;;;;;;8.50;6.20;;;;;;;;;;5094799;28;20279;-64
2022/10/01 01:52:34;;;;;;;7.43;6.00;;;;;;;;;;5097975;27;20665;-64
2022/10/01 01:55:07;;;;;;;8.63;6.27;;;;;;;;;;5093313;28;20705;-65
2022/10/01 01:57:40;;;;;;;6.70;6.10;;;;;;;;;;5102426;28;20209;-65
2022/10/01 02:00:08;;;;;;;6.27;5.50;;;;;;;;;;5095069;28;20280;-64
2022/10/01 02:02:38;;;;;;;6.33;5.60;;;;;;;;;;5089632;28;20604;-64
2022/10/01 02:05:09;;;;;;;6.60;5.00;;;;;;;;;;5101744;28;20317;-65
2022/10/01 02:07:57;;;;;;;5.83;4.97;;;;;;;;;;5094596;28;20291;-65
2022/10/01 02:10:30;;;;;;;6.43;5.30;;;;;;;;;;5077917;28;20576;-65
2022/10/01 02:13:07;;;;;;;5.60;5.10;;;;;;;;;;5094686;28;20195;-65
2022/10/01 02:15:54;;;;;;;5.53;4.70;;;;;;;;;;5094135;28;20326;-65
2022/10/01 02:18:21;;;;;;;5.50;4.80;;;;;;;;;;5098756;27;20290;-65
2022/10/01 02:20:51;;;;;;;4.50;4.10;;;;;;;;;;5103980;27;20684;-65
2022/10/01 02:23:22;;;;;;;4.53;4.13;;;;;;;;;;5125373;28;20673;-66
2022/10/01 02:25:50;;;;;;;4.37;3.97;;;;;;;;;;5094203;28;20319;-65
2022/10/01 02:28:23;;;;;;;3.80;3.50;;;;;;;;;;5099954;27;20570;-65
2022/10/01 02:30:52;;;;;;;4.57;4.13;;;;;;;;;;5095551;28;20598;-65
2022/10/01 02:33:22;;;;;;;4.07;3.43;;;;;;;;;;5093692;27;20199;-65
2022/10/01 02:35:50;;;;;;;4.27;3.90;;;;;;;;;;5095253;28;20227;-65
2022/10/01 02:38:19;;;;;;;4.00;3.70;;;;;;;;;;5094097;28;20200;-65
2022/10/01 02:40:47;;;;;;;3.93;3.50;;;;;;;;;;5093748;28;20200;-65
2022/10/01 02:43:20;;;;;;;3.70;3.40;;;;;;;;;;5098586;27;20265;-65
2022/10/01 02:45:50;;;;;;;4.37;3.97;;;;;;;;;;5095579;28;20216;-65
2022/10/01 02:48:18;;;;;;;4.50;4.10;;;;;;;;;;5093524;28;20211;-65
2022/10/01 02:50:51;;;;;;;4.53;4.13;;;;;;;;;;5095570;27;20263;-66
2022/10/01 02:53:26;;;;;;;5.13;4.00;;;;;;;;;;5125113;28;20210;-65
2022/10/01 02:55:54;;;;;;;4.77;4.37;;;;;;;;;;5107034;28;20318;-65
2022/10/01 02:58:22;;;;;;;5.47;4.97;;;;;;;;;;5105995;28;20642;-65
2022/10/01 03:00:49;;;;;;;5.40;4.90;;;;;;;;;;5097732;28;20290;-64
2022/10/01 03:03:16;;;;;;;5.93;5.33;;;;;;;;;;5093164;28;20784;-65
2022/10/01 03:05:44;;;;;;;5.37;4.87;;;;;;;;;;5110356;28;20363;-65
2022/10/01 03:08:11;;;;;;;5.47;4.97;;;;;;;;;;5093720;28;20210;-65
2022/10/01 03:10:38;;;;;;;5.40;4.90;;;;;;;;;;5089857;27;20224;-65
2022/10/01 03:13:12;;;;;;;6.60;4.90;;;;;;;;;;5093062;28;20689;-65
2022/10/01 03:15:39;;;;;;;5.30;4.80;;;;;;;;;;5110308;28;20323;-65
2022/10/01 03:18:07;;;;;;;7.07;4.77;;;;;;;;;;5100440;28;20204;-65
2022/10/01 03:20:34;;;;;;;5.40;4.90;;;;;;;;;;5111537;28;20223;-64
2022/10/01 03:23:01;;;;;;;4.93;4.53;;;;;;;;;;5093178;28;20310;-64
2022/10/01 03:25:29;;;;;;;5.10;4.70;;;;;;;;;;5088055;28;20216;-65
2022/10/01 03:27:57;;;;;;;6.13;4.57;;;;;;;;;;5099513;27;20275;-66
2022/10/01 03:30:25;;;;;;;5.30;4.80;;;;;;;;;;5096060;27;20204;-66
2022/10/01 03:32:53;;;;;;;5.30;4.77;;;;;;;;;;5102029;28;20291;-65
2022/10/01 03:35:20;;;;;;;6.27;4.87;;;;;;;;;;5093220;28;20247;-65
2022/10/01 03:37:48;;;;;;;5.43;4.93;;;;;;;;;;5090980;28;20749;-65
2022/10/01 03:40:15;;;;;;;6.03;4.80;;;;;;;;;;5103238;28;20287;-65
2022/10/01 03:42:49;;;;;;;5.17;4.70;;;;;;;;;;5119197;27;20713;-65
2022/10/01 03:45:17;;;;;;;5.37;4.87;;;;;;;;;;5094328;28;20226;-65
2022/10/01 03:47:44;;;;;;;5.60;4.90;;;;;;;;;;5092273;28;20289;-65
2022/10/01 03:50:11;;;;;;;6.67;5.20;;;;;;;;;;5093007;28;20291;-65
2022/10/01 03:52:41;;;;;;;5.03;4.27;;;;;;;;;;5092974;28;20235;-65
2022/10/01 03:55:08;;;;;;;5.50;5.00;;;;;;;;;;5088244;28;20304;-65
2022/10/01 03:57:35;;;;;;;5.17;4.67;;;;;;;;;;5096411;28;20420;-66
2022/10/01 04:00:04;;;;;;;5.03;4.63;;;;;;;;;;5095324;28;20239;-64
2022/10/01 04:02:31;;;;;;;5.27;4.77;;;;;;;;;;5100957;27;20352;-65
2022/10/01 04:04:59;;;;;;;5.57;5.07;;;;;;;;;;5122417;28;20280;-65
2022/10/01 04:07:26;;;;;;;6.20;5.53;;;;;;;;;;5100496;28;20719;-65
2022/10/01 04:09:53;;;;;;;6.10;5.50;;;;;;;;;;5097449;27;20208;-65
2022/10/01 04:12:21;;;;;;;6.90;6.20;;;;;;;;;;5110561;28;20196;-64
2022/10/01 04:14:48;;;;;;;6.90;6.20;;;;;;;;;;5104781;28;20212;-66
2022/10/01 04:17:15;;;;;;;9.33;6.60;;;;;;;;;;5096409;28;20200;-66
2022/10/01 04:19:43;;;;;;;8.27;6.67;;;;;;;;;;5096327;28;20303;-66
2022/10/01 04:22:10;;;;;;;9.00;7.60;;;;;;;;;;5095845;28;20310;-66
2022/10/01 04:24:37;;;;;;;8.27;7.27;;;;;;;;;;5096270;28;20287;-65
2022/10/01 04:27:04;;;;;;;9.13;8.10;;;;;;;;;;5104395;28;20287;-66
2022/10/01 04:29:32;;;;;;;10.77;9.07;;;;;;;;;;5101242;28;20283;-66
2022/10/01 04:32:05;;;;;;;10.50;9.00;;;;;;;;;;5078964;28;20253;-65
2022/10/01 04:34:51;;;;;;;10.93;9.50;;;;;;;;;;5079720;28;20236;-66
2022/10/01 04:37:19;;;;;;;12.17;9.97;;;;;;;;;;5124404;27;20287;-65
2022/10/01 04:39:46;;;;;;;11.73;9.83;;;;;;;;;;5113014;28;20590;-65
2022/10/01 04:42:14;;;;;;;11.57;9.43;;;;;;;;;;5099491;28;20535;-65
2022/10/01 04:44:41;;;;;;;10.80;9.30;;;;;;;;;;5082480;28;20240;-66
2022/10/01 04:47:08;;;;;;;11.63;8.93;;;;;;;;;;5075295;28;20296;-66
2022/10/01 04:49:36;;;;;;;9.93;8.13;;;;;;;;;;5091204;28;20204;-64
2022/10/01 04:52:03;;;;;;;9.33;8.43;;;;;;;;;;5095410;28;20206;-65
2022/10/01 04:54:31;;;;;;;9.40;8.10;;;;;;;;;;5101043;27;20239;-65
2022/10/01 04:56:58;;;;;;;11.07;8.57;;;;;;;;;;5105161;27;20233;-65
2022/10/01 04:59:26;;;;;;;9.67;8.63;;;;;;;;;;5098412;27;20725;-65
2022/10/01 05:01:53;;;;;;;9.20;8.10;;;;;;;;;;5099515;28;20223;-65
2022/10/01 05:04:20;;;;;;;9.23;7.73;;;;;;;;;;5111981;28;20329;-65
2022/10/01 05:06:48;;;;;;;8.93;7.80;;;;;;;;;;5090784;28;20263;-65
2022/10/01 05:09:15;;;;;;;8.73;7.67;;;;;;;;;;5089764;28;20200;-65
2022/10/01 05:11:42;;;;;;;8.87;7.97;;;;;;;;;;5097979;28;20196;-65
2022/10/01 05:14:10;;;;;;;8.53;7.63;;;;;;;;;;5094028;27;20288;-65
2022/10/01 05:16:37;;;;;;;9.37;7.93;;;;;;;;;;5098276;28;20316;-65
2022/10/01 05:19:05;;;;;;;7.70;6.90;;;;;;;;;;5115428;27;20307;-64
2022/10/01 05:21:32;;;;;;;8.40;7.50;;;;;;;;;;5113321;27;20206;-65
2022/10/01 05:24:01;;;;;;;7.43;6.70;;;;;;;;;;5086194;28;20224;-66
2022/10/01 05:26:30;;;;;;;8.10;7.10;;;;;;;;;;5091800;28;20227;-65
2022/10/01 05:28:59;;;;;;;9.57;7.40;;;;;;;;;;5098188;28;20265;-64
2022/10/01 05:31:26;;;;;;;7.67;6.70;;;;;;;;;;5111667;28;20211;-65
2022/10/01 05:33:54;;;;;;;7.57;6.73;;;;;;;;;;5095424;28;20630;-65
2022/10/01 05:36:21;;;;;;;8.27;7.03;;;;;;;;;;5094421;28;20623;-65
2022/10/01 05:38:48;;;;;;;7.07;6.37;;;;;;;;;;5091781;28;20323;-65
2022/10/01 05:41:15;;;;;;;7.60;6.80;;;;;;;;;;5077193;27;20685;-65
2022/10/01 05:43:43;;;;;;;11.20;9.30;;;;;;;;;;5105053;27;20250;-66
2022/10/01 05:46:10;;;;;;;14.23;10.80;;;;;;;;;;5100271;27;20790;-65
2022/10/01 05:48:38;;;;;;;14.23;10.37;;;;;;;;;;5116668;27;20577;-65
2022/10/01 05:51:06;;;;;;;24.80;19.23;;;;;;;;;;5094217;28;20654;-66
2022/10/01 05:53:36;;;;;;;15.03;11.93;;;;;;;;;;5095052;28;20235;-65
2022/10/01 05:56:07;;;;;;;21.23;15.80;;;;;;;;;;5093615;28;20220;-65
2022/10/01 05:58:34;;;;;;;10.20;9.17;;;;;;;;;;5102148;27;20287;-65
2022/10/01 06:01:03;;;;;;;10.07;9.07;;;;;;;;;;5094942;28;20200;-65
2022/10/01 06:03:30;;;;;;;13.17;11.77;;;;;;;;;;5094180;28;20265;-64
2022/10/01 06:05:58;;;;;;;10.97;9.87;;;;;;;;;;5088392;28;20220;-65
2022/10/01 06:08:27;;;;;;;8.07;7.27;;;;;;;;;;5095462;28;20196;-65
2022/10/01 06:10:59;;;;;;;7.93;7.10;;;;;;;;;;5094571;28;20287;-65
2022/10/01 06:13:27;;;;;;;7.43;6.70;;;;;;;;;;5090783;27;20291;-65
2022/10/01 06:15:54;;;;;;;7.30;6.60;;;;;;;;;;5095503;28;20678;-65
2022/10/01 06:18:21;;;;;;;6.97;6.07;;;;;;;;;;5094086;28;20291;-64
2022/10/01 06:20:49;;;;;;;6.33;5.73;;;;;;;;;;5097824;28;20675;-65
2022/10/01 06:23:16;;;;;;;7.17;6.47;;;;;;;;;;5085063;28;20272;-65
2022/10/01 06:25:44;;;;;;;6.57;5.97;;;;;;;;;;5102177;28;20298;-64
2022/10/01 06:28:13;;;;;;;6.60;6.00;;;;;;;;;;5097493;27;20283;-65
2022/10/01 06:30:41;;;;;;;6.90;5.60;;;;;;;;;;5086137;28;20205;-65
2022/10/01 06:33:10;;;;;;;8.20;7.40;;;;;;;;;;5093318;28;20291;-65
2022/10/01 06:35:42;;;;;;;6.87;6.27;;;;;;;;;;5106605;28;20220;-65
2022/10/01 06:38:09;;;;;;;7.70;7.00;;;;;;;;;;5094183;28;20291;-64
2022/10/01 06:40:38;;;;;;;6.97;6.27;;;;;;;;;;5094130;28;20294;-65
2022/10/01 06:43:07;;;;;;;7.60;6.40;;;;;;;;;;5093264;28;20220;-65
2022/10/01 06:45:39;;;;;;;7.90;6.93;;;;;;;;;;5089178;28;20248;-63
2022/10/01 06:48:10;;;;;;;6.80;6.10;;;;;;;;;;5092819;28;20212;-65
2022/10/01 06:50:37;;;;;;;6.80;6.10;;;;;;;;;;5093142;28;20287;-65
2022/10/01 06:53:04;;;;;;;6.53;5.90;;;;;;;;;;5101983;28;20255;-65
2022/10/01 06:55:33;;;;;;;10.17;7.77;;;;;;;;;;5096797;27;20235;-65
2022/10/01 06:58:00;;;;;;;9.67;6.77;;;;;;;;;;5093311;28;20314;-65
2022/10/01 07:00:29;;;;;;;7.07;6.37;;;;;;;;;;5093336;28;20303;-65
2022/10/01 07:02:56;;;;;;;10.47;6.37;;;;;;;;;;5091336;28;20315;-65
2022/10/01 07:05:24;;;;;;;7.07;5.87;;;;;;;;;;5090507;28;20256;-65
2022/10/01 07:07:52;;;;;;;8.50;7.57;;;;;;;;;;5110198;28;20247;-66
2022/10/01 07:10:21;;;;;;;13.63;10.17;;;;;;;;;;5109982;28;20630;-64
2022/10/01 07:12:49;;;;;;;9.10;7.83;;;;;;;;;;5092990;28;20243;-66
2022/10/01 07:15:18;;;;;;;7.47;6.57;;;;;;;;;;5093430;28;20216;-64
2022/10/01 07:17:47;;;;;;;8.50;7.60;;;;;;;;;;5093552;28;20295;-66
2022/10/01 07:20:16;;;;;;;7.23;6.53;;;;;;;;;;5110824;28;20669;-65
2022/10/01 07:22:44;;;;;;;7.57;6.77;;;;;;;;;;5106465;28;20227;-65
2022/10/01 07:25:11;;;;;;;6.53;5.97;;;;;;;;;;5112233;28;20255;-66
2022/10/01 07:27:39;;;;;;;6.83;6.20;;;;;;;;;;5110697;28;20291;-64
2022/10/01 07:30:06;;;;;;;7.33;6.57;;;;;;;;;;5101125;28;20208;-65
2022/10/01 07:32:34;;;;;;;7.23;6.53;;;;;;;;;;5096490;28;20196;-65
2022/10/01 07:35:01;;;;;;;8.47;6.37;;;;;;;;;;5093514;28;20220;-65
2022/10/01 07:37:29;;;;;;;7.07;6.33;;;;;;;;;;5109972;28;20298;-65
2022/10/01 07:39:56;;;;;;;6.67;5.93;;;;;;;;;;5091121;28;20202;-65
2022/10/01 07:42:25;;;;;;;5.63;5.10;;;;;;;;;;5092673;28;20326;-65
2022/10/01 07:44:54;;;;;;;6.17;5.03;;;;;;;;;;5102650;28;20287;-66
2022/10/01 07:47:21;;;;;;;7.83;5.50;;;;;;;;;;5102048;28;20246;-65
2022/10/01 07:49:48;;;;;;;7.07;5.27;;;;;;;;;;5092423;28;20309;-66
2022/10/01 07:52:16;;;;;;;5.77;5.27;;;;;;;;;;5110949;28;20264;-65
2022/10/01 07:54:43;;;;;;;5.57;5.07;;;;;;;;;;5098785;28;20211;-66
2022/10/01 07:57:10;;;;;;;6.77;4.47;;;;;;;;;;5112096;28;20287;-65
2022/10/01 07:59:39;;;;;;;6.37;4.27;;;;;;;;;;5095775;28;20453;-64
2022/10/01 08:02:17;;;;;;;3.90;3.60;;;;;;;;;;5092227;28;20279;-65
2022/10/01 08:07:31;;;;;;;4.37;3.97;;;;;;;;;;5113386;28;20553;-65
2022/10/01 08:09:58;;;;;;;4.70;4.30;;;;;;;;;;5092869;28;20203;-65
2022/10/01 08:12:27;;;;;;;5.40;4.30;;;;;;;;;;5083982;28;20616;-65
2022/10/01 08:14:55;;;;;;;4.10;3.80;;;;;;;;;;5080493;28;20239;-65
2022/10/01 08:17:22;;;;;;;4.37;4.00;;;;;;;;;;5099573;28;20383;-64
2022/10/01 08:19:55;;;;;;;4.10;3.80;;;;;;;;;;5089184;28;20185;-66
2022/10/01 08:22:22;;;;;;;5.03;4.63;;;;;;;;;;5094376;28;20283;-66
2022/10/01 08:24:50;;;;;;;4.07;3.77;;;;;;;;;;5114813;28;20729;-65
2022/10/01 08:27:17;;;;;;;4.50;4.10;;;;;;;;;;5093624;28;20292;-65
2022/10/01 08:29:44;;;;;;;3.57;3.33;;;;;;;;;;5094935;28;20236;-65
2022/10/01 08:32:11;;;;;;;4.27;3.90;;;;;;;;;;5095008;28;20204;-64
2022/10/01 08:34:39;;;;;;;4.53;3.70;;;;;;;;;;5092231;28;20576;-65
2022/10/01 08:37:06;;;;;;;4.07;3.77;;;;;;;;;;5091800;28;20286;-65
2022/10/01 08:39:35;;;;;;;4.30;4.00;;;;;;;;;;5091336;28;20287;-65
2022/10/01 08:42:20;;;;;;;3.90;3.60;;;;;;;;;;5092067;28;20223;-66
2022/10/01 08:44:48;;;;;;;3.73;3.43;;;;;;;;;;5092100;28;20215;-66
2022/10/01 08:47:30;;;;;;;4.07;3.60;;;;;;;;;;5100950;28;20201;-65
2022/10/01 08:50:05;;;;;;;4.87;3.33;;;;;;;;;;5095656;28;20239;-65
2022/10/01 08:52:36;;;;;;;3.80;3.50;;;;;;;;;;5091586;28;20283;-65
2022/10/01 08:55:24;;;;;;;3.60;3.30;;;;;;;;;;5103035;28;20653;-65
2022/10/01 08:57:54;;;;;;;3.70;3.10;;;;;;;;;;5099622;27;20246;-65
2022/10/01 09:00:21;;;;;;;9.50;7.00;;;;;;;;;;5097613;27;20200;-65
2022/10/01 09:02:51;;;;;;;8.10;6.43;;;;;;;;;;5096074;27;20236;-65
2022/10/01 09:05:25;;;;;;;5.17;4.67;;;;;;;;;;5115292;27;20255;-65
2022/10/01 09:08:05;;;;;;;3.40;3.10;;;;;;;;;;5116018;27;20262;-65
2022/10/01 09:10:41;;;;;;;2.77;2.57;;;;;;;;;;5116204;27;20285;-65
2022/10/01 09:13:12;;;;;;;3.10;2.80;;;;;;;;;;5116050;27;20634;-64
2022/10/01 09:15:55;;;;;;;2.80;2.60;;;;;;;;;;5110894;28;20299;-66
2022/10/01 09:18:37;;;;;;;2.83;2.60;;;;;;;;;;5094314;28;20673;-66
2022/10/01 09:21:11;;;;;;;2.90;2.70;;;;;;;;;;5099743;28;20251;-66
2022/10/01 09:23:59;;;;;;;2.50;2.30;;;;;;;;;;5092668;28;20230;-66
2022/10/01 09:26:26;;;;;;;4.00;3.10;;;;;;;;;;5100627;28;20219;-64
2022/10/01 09:28:55;;;;;;;2.73;2.53;;;;;;;;;;5104523;28;20280;-65
2022/10/01 09:31:27;;;;;;;3.23;2.20;;;;;;;;;;5094724;28;20623;-65
2022/10/01 09:34:10;;;;;;;2.80;2.60;;;;;;;;;;5095254;28;20210;-65
2022/10/01 09:36:50;;;;;;;2.70;2.30;;;;;;;;;;5088617;28;20307;-65
2022/10/01 09:39:34;;;;;;;2.43;2.27;;;;;;;;;;5118398;27;20231;-64
2022/10/01 09:42:02;;;;;;;2.23;2.13;;;;;;;;;;5114865;27;20199;-65
2022/10/01 09:44:30;;;;;;;2.43;2.20;;;;;;;;;;5114764;27;20224;-65
2022/10/01 09:46:58;;;;;;;2.57;2.37;;;;;;;;;;5114958;27;20227;-65
2022/10/01 09:49:30;;;;;;;3.00;2.70;;;;;;;;;;5115227;27;20269;-65
2022/10/01 09:52:01;;;;;;;2.70;2.50;;;;;;;;;;5103801;28;20397;-65
2022/10/01 09:54:42;;;;;;;3.13;2.93;;;;;;;;;;5085879;28;20212;-65
2022/10/01 09:57:11;;;;;;;2.57;2.37;;;;;;;;;;5074194;28;20646;-66
2022/10/01 09:59:45;;;;;;;2.37;2.27;;;;;;;;;;5102349;28;20357;-65
2022/10/01 10:02:19;;;;;;;2.20;2.00;;;;;;;;;;5110988;28;20208;-66
2022/10/01 10:04:46;;;;;;;2.10;2.00;;;;;;;;;;5111422;28;20208;-65
2022/10/01 10:07:17;;;;;;;2.60;2.40;;;;;;;;;;5100407;28;20196;-65
2022/10/01 10:09:45;;;;;;;3.50;3.20;;;;;;;;;;5097114;28;20530;-65
2022/10/01 10:12:27;;;;;;;5.50;4.60;;;;;;;;;;5095093;27;20239;-65
2022/10/01 10:14:57;;;;;;;10.30;6.63;;;;;;;;;;5095251;28;20206;-64
2022/10/01 10:17:25;;;;;;;7.27;5.13;;;;;;;;;;5094230;28;20208;-65
2022/10/01 10:19:52;;;;;;;6.47;5.77;;;;;;;;;;5093800;28;20299;-65
2022/10/01 10:22:24;;;;;;;3.03;2.73;;;;;;;;;;5091596;28;20734;-65
2022/10/01 10:25:04;;;;;;;3.43;2.87;;;;;;;;;;5097422;28;20219;-64
2022/10/01 10:27:32;;;;;;;2.50;2.30;;;;;;;;;;5092650;28;20641;-65
2022/10/01 10:30:16;;;;;;;3.00;2.10;;;;;;;;;;5101397;28;20265;-63
2022/10/01 10:32:45;;;;;;;3.30;3.00;;;;;;;;;;5110794;28;20196;-64
2022/10/01 10:35:31;;;;;;;2.50;2.30;;;;;;;;;;5111316;28;20224;-65
2022/10/01 10:38:00;;;;;;;2.93;2.33;;;;;;;;;;5110715;28;20576;-65
2022/10/01 10:40:31;;;;;;;1.50;1.40;;;;;;;;;;5093961;28;20291;-65
2022/10/01 10:42:59;;;;;;;1.97;1.77;;;;;;;;;;5094809;28;20292;-65
2022/10/01 10:45:37;;;;;;;8.00;6.93;;;;;;;;;;5091109;28;20308;-65
2022/10/01 10:48:06;;;;;;;2.83;1.93;;;;;;;;;;5123461;28;20204;-64
2022/10/01 10:50:36;;;;;;;1.83;1.60;;;;;;;;;;5115443;28;20283;-65
2022/10/01 10:53:23;;;;;;;2.33;1.90;;;;;;;;;;5128214;27;20203;-65
2022/10/01 10:56:02;;;;;;;3.30;2.20;;;;;;;;;;5113711;27;20225;-65
2022/10/01 10:58:32;;;;;;;1.40;1.30;;;;;;;;;;5106386;28;20232;-65
2022/10/01 11:01:08;;;;;;;1.50;1.40;;;;;;;;;;5093151;28;20404;-65
2022/10/01 11:03:36;;;;;;;1.50;1.40;;;;;;;;;;5074150;28;20296;-64
2022/10/01 11:06:11;;;;;;;1.30;1.20;;;;;;;;;;5107276;27;20277;-65
2022/10/01 11:08:39;;;;;;;1.00;1.00;;;;;;;;;;5113516;27;20317;-65
2022/10/01 11:11:26;;;;;;;1.00;1.00;;;;;;;;;;5113981;27;20278;-65
2022/10/01 11:13:59;;;;;;;5.50;4.87;;;;;;;;;;5090813;28;20223;-65
2022/10/01 11:16:27;;;;;;;27.67;19.87;;;;;;;;;;5101573;28;20315;-65
2022/10/01 11:19:01;;;;;;;2.43;2.23;;;;;;;;;;5100256;28;20244;-65
2022/10/01 11:21:37;;;;;;;2.30;2.10;;;;;;;;;;5101240;28;20646;-65
2022/10/01 11:24:08;;;;;;;1.37;1.27;;;;;;;;;;5101291;28;20306;-65
2022/10/01 11:26:52;;;;;;;1.80;1.30;;;;;;;;;;5085498;28;20218;-65
2022/10/01 11:29:38;;;;;;;1.50;1.40;;;;;;;;;;5092837;28;20221;-64
2022/10/01 11:32:16;;;;;;;1.70;1.60;;;;;;;;;;5091640;28;20207;-64
2022/10/01 11:34:49;;;;;;;3.07;2.20;;;;;;;;;;5085867;28;20196;-65
2022/10/01 11:37:16;;;;;;;1.43;1.40;;;;;;;;;;5092610;28;20339;-65
2022/10/01 11:39:44;;;;;;;1.90;1.30;;;;;;;;;;5092819;28;20235;-65
2022/10/01 11:42:15;;;;;;;1.43;1.30;;;;;;;;;;5096234;28;20204;-65
2022/10/01 11:44:49;;;;;;;2.20;2.03;;;;;;;;;;5113153;27;20227;-65
2022/10/01 11:47:21;;;;;;;2.00;1.60;;;;;;;;;;5101558;28;20304;-65
2022/10/01 11:50:02;;;;;;;1.20;1.20;;;;;;;;;;5103700;28;20509;-66
2022/10/01 11:52:33;;;;;;;1.77;1.67;;;;;;;;;;5092133;28;20200;-65
2022/10/01 12:01:17;;;;;;;1.70;1.30;;;;;;;;;;5116234;28;20263;-64
2022/10/01 12:03:54;;;;;;;1.27;1.20;;;;;;;;;;5053909;28;20777;-65
2022/10/01 12:06:44;;;;;;;1.10;1.10;;;;;;;;;;5092048;28;20314;-65
2022/10/01 12:09:22;;;;;;;1.57;1.20;;;;;;;;;;5092846;28;20275;-65
2022/10/01 12:12:09;;;;;;;1.33;1.10;;;;;;;;;;5091423;28;20223;-65
2022/10/01 12:14:41;;;;;;;1.17;1.07;;;;;;;;;;5092318;28;20204;-65
2022/10/01 12:17:21;;;;;;;3.27;1.30;;;;;;;;;;5091844;28;20291;-65
2022/10/01 12:19:50;;;;;;;1.10;1.10;;;;;;;;;;5094413;27;20294;-65
2022/10/01 12:22:37;;;;;;;1.37;1.30;;;;;;;;;;5093143;28;20240;-65
2022/10/01 12:25:10;;;;;;;2.00;1.30;;;;;;;;;;5108639;28;20234;-65
2022/10/01 12:27:37;;;;;;;4.50;4.10;;;;;;;;;;5099977;28;20291;-65
2022/10/01 12:30:11;;;;;;;4.20;3.80;;;;;;;;;;5101920;27;20279;-64
2022/10/01 12:32:54;;;;;;;3.00;2.70;;;;;;;;;;5095941;28;20279;-66
2022/10/01 12:35:28;;;;;;;3.33;3.13;;;;;;;;;;5093542;28;20267;-65
2022/10/01 12:38:08;;;;;;;4.23;3.83;;;;;;;;;;5076316;28;20209;-65
2022/10/01 12:40:51;;;;;;;2.60;2.00;;;;;;;;;;5076261;28;20247;-65
2022/10/01 12:43:34;;;;;;;2.53;1.80;;;;;;;;;;5076460;28;20292;-65
2022/10/01 12:46:11;;;;;;;1.70;1.60;;;;;;;;;;5075469;28;20781;-65
2022/10/01 12:48:38;;;;;;;2.23;2.03;;;;;;;;;;5075641;28;20204;-65
2022/10/01 12:51:05;;;;;;;1.37;1.27;;;;;;;;;;5075303;28;20291;-65
2022/10/01 12:53:45;;;;;;;2.13;1.50;;;;;;;;;;5075423;28;20612;-65
2022/10/01 12:56:16;;;;;;;1.10;1.10;;;;;;;;;;5075115;28;20251;-64
2022/10/01 12:58:48;;;;;;;5.57;4.23;;;;;;;;;;5093328;28;20226;-65
2022/10/01 13:01:34;;;;;;;5.90;4.60;;;;;;;;;;5108426;28;20196;-65
2022/10/01 13:04:01;;;;;;;2.67;2.47;;;;;;;;;;5092213;28;20236;-65
2022/10/01 13:06:45;;;;;;;2.90;2.60;;;;;;;;;;5091028;28;20221;-65
2022/10/01 13:09:15;;;;;;;2.70;2.30;;;;;;;;;;5092054;28;20284;-65
2022/10/01 13:11:45;;;;;;;3.43;2.10;;;;;;;;;;5091920;28;20291;-65
2022/10/01 13:14:16;;;;;;;2.30;2.10;;;;;;;;;;5095274;28;20574;-65
2022/10/01 13:16:53;;;;;;;2.50;2.20;;;;;;;;;;5095229;28;20220;-65
2022/10/01 13:19:39;;;;;;;2.77;2.10;;;;;;;;;;5094512;28;20733;-65
2022/10/01 13:22:15;;;;;;;8.53;7.13;;;;;;;;;;5095134;28;20658;-66
2022/10/01 13:25:00;;;;;;;13.57;9.47;;;;;;;;;;5094988;28;20602;-65
2022/10/01 13:27:43;;;;;;;2.60;2.40;;;;;;;;;;5111108;28;20212;-65
2022/10/01 13:30:19;;;;;;;1.80;1.70;;;;;;;;;;5097683;28;20283;-65
2022/10/01 13:32:52;;;;;;;2.33;2.13;;;;;;;;;;5097549;28;20271;-65
2022/10/01 13:35:34;;;;;;;1.70;1.60;;;;;;;;;;5086703;28;20229;-64
2022/10/01 13:38:16;;;;;;;1.70;1.60;;;;;;;;;;5074861;28;20645;-65
2022/10/01 13:40:43;;;;;;;3.20;2.90;;;;;;;;;;5074636;28;20223;-65
2022/10/01 13:43:19;;;;;;;4.43;4.03;;;;;;;;;;5074527;28;20240;-65
2022/10/01 13:45:48;;;;;;;2.40;2.30;;;;;;;;;;5073670;28;20315;-65
2022/10/01 13:48:22;;;;;;;1.40;1.30;;;;;;;;;;5074433;28;20205;-66
2022/10/01 13:51:02;;;;;;;1.80;1.70;;;;;;;;;;5074682;28;20188;-65
2022/10/01 13:53:32;;;;;;;1.50;1.40;;;;;;;;;;5088140;28;20206;-65
2022/10/01 13:55:59;;;;;;;3.90;3.60;;;;;;;;;;5090616;28;20225;-65
2022/10/01 13:58:31;;;;;;;2.47;2.27;;;;;;;;;;5109246;27;20243;-65
2022/10/01 14:01:01;;;;;;;0.70;0.70;;;;;;;;;;5102092;27;20239;-65
2022/10/01 14:03:35;;;;;;;0.90;0.90;;;;;;;;;;5091517;28;20212;-65
2022/10/01 14:06:03;;;;;;;1.00;1.00;;;;;;;;;;5093584;28;20232;-65
2022/10/01 14:08:40;;;;;;;1.00;0.97;;;;;;;;;;5092773;28;20299;-66
2022/10/01 14:17:05;;;;;;;1.73;1.63;;;;;;;;;;5091870;28;20281;-65
2022/10/01 14:19:32;;;;;;;3.83;2.10;;;;;;;;;;5092075;28;20542;-65
2022/10/01 14:22:03;;;;;;;1.90;1.80;;;;;;;;;;5074297;28;20758;-65
2022/10/01 14:24:36;;;;;;;2.27;2.07;;;;;;;;;;5081946;28;20230;-65
2022/10/01 14:27:22;;;;;;;2.60;2.27;;;;;;;;;;5102554;28;20320;-65
2022/10/01 14:29:49;;;;;;;2.63;2.43;;;;;;;;;;5095295;27;20283;-65
2022/10/01 14:32:22;;;;;;;1.57;1.47;;;;;;;;;;5114901;27;20298;-65
2022/10/01 14:34:52;;;;;;;1.07;1.07;;;;;;;;;;5114822;27;20294;-66
2022/10/01 14:37:20;;;;;;;2.33;1.80;;;;;;;;;;5114514;27;20606;-66
2022/10/01 14:40:00;;;;;;;3.17;1.70;;;;;;;;;;5114625;27;20200;-65
2022/10/01 14:42:27;;;;;;;10.37;6.13;;;;;;;;;;5112101;27;20287;-66
2022/10/01 14:44:54;;;;;;;1.67;1.50;;;;;;;;;;5093714;28;20332;-66
2022/10/01 14:47:26;;;;;;;4.30;3.90;;;;;;;;;;5093581;28;20739;-65
2022/10/01 14:49:54;;;;;;;5.30;4.40;;;;;;;;;;5093650;28;20200;-65
2022/10/01 14:52:24;;;;;;;9.93;8.97;;;;;;;;;;5093551;28;20203;-65
2022/10/01 14:55:02;;;;;;;3.27;2.97;;;;;;;;;;5093443;28;20208;-65
2022/10/01 14:57:33;;;;;;;2.87;2.67;;;;;;;;;;5093387;28;20236;-66
2022/10/01 15:00:04;;;;;;;3.23;3.03;;;;;;;;;;5102151;28;20233;-66
2022/10/01 15:02:32;;;;;;;6.80;6.30;;;;;;;;;;5097718;28;20666;-65
2022/10/01 15:04:59;;;;;;;1.90;1.80;;;;;;;;;;5093047;28;20224;-65
2022/10/01 15:07:28;;;;;;;1.00;1.00;;;;;;;;;;5092818;28;20681;-65
2022/10/01 15:10:05;;;;;;;2.67;2.40;;;;;;;;;;5093281;28;20236;-66
2022/10/01 15:12:38;;;;;;;1.80;0.80;;;;;;;;;;5093233;28;20583;-65
2022/10/01 15:15:14;;;;;;;0.60;0.60;;;;;;;;;;5093038;28;20728;-66
2022/10/01 15:17:42;;;;;;;0.80;0.80;;;;;;;;;;5092388;28;20311;-65
2022/10/01 15:20:10;;;;;;;0.80;0.80;;;;;;;;;;5092453;28;20266;-65